Accueil
METAR-TAF:

METAR-TAF

Aéroports :

Tokachi-Obihiro, Japon

latitude: 42-54N, longitude: 143-10E, altitude: 84 m

Observation

Le bulletin a été fait il y a 4 heures et 4 minutes, à 07:18 UTC
Vent 3 kt de ouest
Température -2°C
Humidité 93%
Pression 1007 hPa
Visibilité: 3000 m
Quelques nuages à une hauteur de 1000 ft
Nuages épars à une hauteur de 1500 ft
Nuages fragmentés à une hauteur de 4000 ft
faibles averses de neige

METAR: RJCT 200718Z 28003KT 3000 -SHSN FEW010 SCT015 BKN040 M02/M03 Q1007 RMK 1ST010 3ST015 5CU040 A2974

Heure: 20:22 (11:22 UTC)


TAF: absent

Observations et prévisions météorologiques de plus de 4000 aéroports (messages METAR et TAF).

Les stations disponibles sont représentées par des disques jaunes et rouges sur la carte.

Passer la souris dessus pour voir le nom de la station.

Cliquer dessus pour voir les observations et prévisions météorologiques.

Pour changer de carte: cliquez sur les boutons verts avec une croix noire pour zoomer, sur le bouton vert avec un tiret pour effectuer un zoom arrière, ou sur les flèches vertes pour les cartes adjacentes.


METAR-TAF: